sensor_id;sensor_type;location;lat;lon;timestamp;P1;durP1;ratioP1;P2;durP2;ratioP2
6527;SDS011;64597;42.664;23.256;2024-02-14T00:02:25;5.05;;;2.90;;
6527;SDS011;64597;42.664;23.256;2024-02-14T00:04:52;4.55;;;2.53;;
6527;SDS011;64597;42.664;23.256;2024-02-14T00:07:18;3.63;;;2.08;;
6527;SDS011;64597;42.664;23.256;2024-02-14T00:09:44;3.88;;;2.75;;
6527;SDS011;64597;42.664;23.256;2024-02-14T00:12:09;4.95;;;3.08;;
6527;SDS011;64597;42.664;23.256;2024-02-14T00:14:36;4.70;;;2.83;;
6527;SDS011;64597;42.664;23.256;2024-02-14T00:17:02;3.95;;;2.90;;
6527;SDS011;64597;42.664;23.256;2024-02-14T00:19:28;5.43;;;3.00;;
6527;SDS011;64597;42.664;23.256;2024-02-14T00:21:54;4.78;;;3.13;;
6527;SDS011;64597;42.664;23.256;2024-02-14T00:24:19;5.63;;;2.78;;
6527;SDS011;64597;42.664;23.256;2024-02-14T00:26:45;4.80;;;3.00;;
6527;SDS011;64597;42.664;23.256;2024-02-14T00:29:11;4.45;;;2.92;;
6527;SDS011;64597;42.664;23.256;2024-02-14T00:31:36;5.47;;;3.25;;
6527;SDS011;64597;42.664;23.256;2024-02-14T00:34:02;3.88;;;3.00;;
6527;SDS011;64597;42.664;23.256;2024-02-14T00:36:27;5.47;;;3.20;;
6527;SDS011;64597;42.664;23.256;2024-02-14T00:38:53;3.20;;;2.47;;
6527;SDS011;64597;42.664;23.256;2024-02-14T00:41:19;3.58;;;2.53;;
6527;SDS011;64597;42.664;23.256;2024-02-14T00:43:44;4.50;;;2.33;;
6527;SDS011;64597;42.664;23.256;2024-02-14T00:46:15;5.65;;;2.80;;
6527;SDS011;64597;42.664;23.256;2024-02-14T00:48:41;4.43;;;2.65;;
6527;SDS011;64597;42.664;23.256;2024-02-14T00:51:07;4.47;;;2.33;;
6527;SDS011;64597;42.664;23.256;2024-02-14T00:53:32;4.93;;;3.03;;
6527;SDS011;64597;42.664;23.256;2024-02-14T00:55:58;4.50;;;2.78;;
6527;SDS011;64597;42.664;23.256;2024-02-14T00:58:23;3.97;;;2.65;;
6527;SDS011;64597;42.664;23.256;2024-02-14T01:00:49;4.97;;;2.88;;
6527;SDS011;64597;42.664;23.256;2024-02-14T01:03:14;5.05;;;2.65;;
6527;SDS011;64597;42.664;23.256;2024-02-14T01:05:41;3.90;;;2.67;;
6527;SDS011;64597;42.664;23.256;2024-02-14T01:08:07;7.57;;;3.47;;
6527;SDS011;64597;42.664;23.256;2024-02-14T01:10:33;4.93;;;2.92;;
6527;SDS011;64597;42.664;23.256;2024-02-14T01:12:58;4.45;;;3.13;;
6527;SDS011;64597;42.664;23.256;2024-02-14T01:15:24;5.82;;;3.38;;
6527;SDS011;64597;42.664;23.256;2024-02-14T01:17:49;5.30;;;3.20;;
6527;SDS011;64597;42.664;23.256;2024-02-14T01:20:15;5.35;;;3.33;;
6527;SDS011;64597;42.664;23.256;2024-02-14T01:22:40;3.55;;;2.58;;
6527;SDS011;64597;42.664;23.256;2024-02-14T01:25:06;5.03;;;2.83;;
6527;SDS011;64597;42.664;23.256;2024-02-14T01:27:31;5.07;;;2.80;;
6527;SDS011;64597;42.664;23.256;2024-02-14T01:29:57;4.68;;;2.63;;
6527;SDS011;64597;42.664;23.256;2024-02-14T01:32:23;5.30;;;3.35;;
6527;SDS011;64597;42.664;23.256;2024-02-14T01:34:48;5.38;;;3.25;;
6527;SDS011;64597;42.664;23.256;2024-02-14T01:37:14;6.80;;;3.38;;
6527;SDS011;64597;42.664;23.256;2024-02-14T01:39:39;5.28;;;3.47;;
6527;SDS011;64597;42.664;23.256;2024-02-14T01:42:05;5.35;;;3.22;;
6527;SDS011;64597;42.664;23.256;2024-02-14T01:44:32;4.53;;;2.85;;
6527;SDS011;64597;42.664;23.256;2024-02-14T01:46:58;4.38;;;2.92;;
6527;SDS011;64597;42.664;23.256;2024-02-14T01:49:25;8.52;;;3.70;;
6527;SDS011;64597;42.664;23.256;2024-02-14T01:51:53;7.30;;;3.28;;
6527;SDS011;64597;42.664;23.256;2024-02-14T01:54:20;5.97;;;3.33;;
6527;SDS011;64597;42.664;23.256;2024-02-14T01:56:46;6.28;;;3.50;;
6527;SDS011;64597;42.664;23.256;2024-02-14T01:59:12;6.05;;;3.20;;
6527;SDS011;64597;42.664;23.256;2024-02-14T02:01:40;3.95;;;3.13;;
6527;SDS011;64597;42.664;23.256;2024-02-14T02:04:06;5.10;;;3.42;;
6527;SDS011;64597;42.664;23.256;2024-02-14T02:06:32;5.25;;;3.45;;
6527;SDS011;64597;42.664;23.256;2024-02-14T02:08:57;4.88;;;3.20;;
6527;SDS011;64597;42.664;23.256;2024-02-14T02:11:24;5.68;;;3.25;;
6527;SDS011;64597;42.664;23.256;2024-02-14T02:13:50;7.30;;;3.65;;
6527;SDS011;64597;42.664;23.256;2024-02-14T02:16:15;6.00;;;3.30;;
6527;SDS011;64597;42.664;23.256;2024-02-14T02:18:42;4.72;;;3.03;;
6527;SDS011;64597;42.664;23.256;2024-02-14T02:21:07;5.65;;;3.03;;
6527;SDS011;64597;42.664;23.256;2024-02-14T02:23:36;6.32;;;3.10;;
6527;SDS011;64597;42.664;23.256;2024-02-14T02:26:01;6.72;;;3.45;;
6527;SDS011;64597;42.664;23.256;2024-02-14T02:28:27;6.43;;;3.53;;
6527;SDS011;64597;42.664;23.256;2024-02-14T02:30:52;5.65;;;3.10;;
6527;SDS011;64597;42.664;23.256;2024-02-14T02:33:19;5.43;;;2.85;;
6527;SDS011;64597;42.664;23.256;2024-02-14T02:35:46;6.10;;;3.90;;
6527;SDS011;64597;42.664;23.256;2024-02-14T02:38:13;6.50;;;3.65;;
6527;SDS011;64597;42.664;23.256;2024-02-14T02:40:38;4.70;;;3.58;;
6527;SDS011;64597;42.664;23.256;2024-02-14T02:43:04;6.05;;;2.70;;
6527;SDS011;64597;42.664;23.256;2024-02-14T02:45:30;5.95;;;3.70;;
6527;SDS011;64597;42.664;23.256;2024-02-14T02:47:56;7.65;;;3.67;;
6527;SDS011;64597;42.664;23.256;2024-02-14T02:50:21;5.93;;;3.42;;
6527;SDS011;64597;42.664;23.256;2024-02-14T02:52:47;6.10;;;3.60;;
6527;SDS011;64597;42.664;23.256;2024-02-14T02:55:13;5.20;;;3.42;;
6527;SDS011;64597;42.664;23.256;2024-02-14T02:57:40;5.63;;;3.20;;
6527;SDS011;64597;42.664;23.256;2024-02-14T03:00:06;5.47;;;3.70;;
6527;SDS011;64597;42.664;23.256;2024-02-14T03:02:32;5.15;;;3.58;;
6527;SDS011;64597;42.664;23.256;2024-02-14T03:04:59;5.50;;;3.03;;
6527;SDS011;64597;42.664;23.256;2024-02-14T03:07:25;4.97;;;3.70;;
6527;SDS011;64597;42.664;23.256;2024-02-14T03:09:51;6.35;;;3.45;;
6527;SDS011;64597;42.664;23.256;2024-02-14T03:12:17;5.38;;;3.53;;
6527;SDS011;64597;42.664;23.256;2024-02-14T03:14:43;6.03;;;2.83;;
6527;SDS011;64597;42.664;23.256;2024-02-14T03:17:09;6.47;;;3.30;;
6527;SDS011;64597;42.664;23.256;2024-02-14T03:19:35;5.85;;;3.35;;
6527;SDS011;64597;42.664;23.256;2024-02-14T03:22:03;5.40;;;3.08;;
6527;SDS011;64597;42.664;23.256;2024-02-14T03:24:34;3.97;;;2.85;;
6527;SDS011;64597;42.664;23.256;2024-02-14T03:27:02;5.30;;;3.20;;
6527;SDS011;64597;42.664;23.256;2024-02-14T03:29:29;4.82;;;2.65;;
6527;SDS011;64597;42.664;23.256;2024-02-14T03:31:55;5.80;;;3.97;;
6527;SDS011;64597;42.664;23.256;2024-02-14T03:34:23;6.72;;;3.53;;
6527;SDS011;64597;42.664;23.256;2024-02-14T03:36:50;5.32;;;3.30;;
6527;SDS011;64597;42.664;23.256;2024-02-14T03:39:15;6.40;;;3.20;;
6527;SDS011;64597;42.664;23.256;2024-02-14T03:41:42;5.10;;;3.70;;
6527;SDS011;64597;42.664;23.256;2024-02-14T03:44:07;7.25;;;3.50;;
6527;SDS011;64597;42.664;23.256;2024-02-14T03:46:33;4.82;;;2.90;;
6527;SDS011;64597;42.664;23.256;2024-02-14T03:49:00;7.15;;;3.67;;
6527;SDS011;64597;42.664;23.256;2024-02-14T03:51:25;3.80;;;2.50;;
6527;SDS011;64597;42.664;23.256;2024-02-14T03:53:51;6.18;;;3.45;;
6527;SDS011;64597;42.664;23.256;2024-02-14T03:56:17;5.32;;;3.78;;
6527;SDS011;64597;42.664;23.256;2024-02-14T03:58:42;4.97;;;3.17;;
6527;SDS011;64597;42.664;23.256;2024-02-14T04:01:08;6.97;;;3.67;;
6527;SDS011;64597;42.664;23.256;2024-02-14T04:03:33;4.65;;;2.83;;
6527;SDS011;64597;42.664;23.256;2024-02-14T04:05:59;5.95;;;3.22;;
6527;SDS011;64597;42.664;23.256;2024-02-14T04:08:25;5.47;;;3.47;;
6527;SDS011;64597;42.664;23.256;2024-02-14T04:10:51;5.90;;;3.45;;
6527;SDS011;64597;42.664;23.256;2024-02-14T04:13:18;5.00;;;2.95;;
6527;SDS011;64597;42.664;23.256;2024-02-14T04:15:44;6.57;;;3.60;;
6527;SDS011;64597;42.664;23.256;2024-02-14T04:18:10;6.18;;;3.70;;
6527;SDS011;64597;42.664;23.256;2024-02-14T04:20:36;5.00;;;3.00;;
6527;SDS011;64597;42.664;23.256;2024-02-14T04:23:01;5.78;;;3.85;;
6527;SDS011;64597;42.664;23.256;2024-02-14T04:25:26;7.60;;;4.65;;
6527;SDS011;64597;42.664;23.256;2024-02-14T04:27:52;7.03;;;3.17;;
6527;SDS011;64597;42.664;23.256;2024-02-14T04:30:17;6.95;;;3.85;;
6527;SDS011;64597;42.664;23.256;2024-02-14T04:32:43;6.60;;;3.80;;
6527;SDS011;64597;42.664;23.256;2024-02-14T04:35:09;6.07;;;4.47;;
6527;SDS011;64597;42.664;23.256;2024-02-14T04:37:35;8.30;;;4.43;;
6527;SDS011;64597;42.664;23.256;2024-02-14T04:40:01;6.78;;;3.97;;
6527;SDS011;64597;42.664;23.256;2024-02-14T04:42:29;6.32;;;3.90;;
6527;SDS011;64597;42.664;23.256;2024-02-14T04:44:54;6.60;;;4.03;;
6527;SDS011;64597;42.664;23.256;2024-02-14T04:47:20;5.60;;;3.53;;
6527;SDS011;64597;42.664;23.256;2024-02-14T04:49:45;7.18;;;3.92;;
6527;SDS011;64597;42.664;23.256;2024-02-14T04:52:11;7.20;;;4.38;;
6527;SDS011;64597;42.664;23.256;2024-02-14T04:54:36;6.45;;;5.10;;
6527;SDS011;64597;42.664;23.256;2024-02-14T04:57:02;6.28;;;3.95;;
6527;SDS011;64597;42.664;23.256;2024-02-14T04:59:29;8.60;;;4.57;;
6527;SDS011;64597;42.664;23.256;2024-02-14T05:01:54;7.60;;;4.65;;
6527;SDS011;64597;42.664;23.256;2024-02-14T05:04:21;8.02;;;5.38;;
6527;SDS011;64597;42.664;23.256;2024-02-14T05:06:47;7.50;;;3.80;;
6527;SDS011;64597;42.664;23.256;2024-02-14T05:09:13;7.88;;;3.97;;
6527;SDS011;64597;42.664;23.256;2024-02-14T05:11:40;6.88;;;4.10;;
6527;SDS011;64597;42.664;23.256;2024-02-14T05:14:05;6.90;;;4.45;;
6527;SDS011;64597;42.664;23.256;2024-02-14T05:16:31;6.55;;;4.90;;
6527;SDS011;64597;42.664;23.256;2024-02-14T05:18:56;7.53;;;4.43;;
6527;SDS011;64597;42.664;23.256;2024-02-14T05:21:21;8.25;;;5.15;;
6527;SDS011;64597;42.664;23.256;2024-02-14T05:23:47;9.60;;;5.63;;
6527;SDS011;64597;42.664;23.256;2024-02-14T05:26:13;10.10;;;5.45;;
6527;SDS011;64597;42.664;23.256;2024-02-14T05:28:39;8.68;;;4.63;;
6527;SDS011;64597;42.664;23.256;2024-02-14T05:31:04;6.63;;;4.78;;
6527;SDS011;64597;42.664;23.256;2024-02-14T05:33:30;7.68;;;4.35;;
6527;SDS011;64597;42.664;23.256;2024-02-14T05:35:55;7.40;;;4.22;;
6527;SDS011;64597;42.664;23.256;2024-02-14T05:38:21;6.85;;;4.47;;
6527;SDS011;64597;42.664;23.256;2024-02-14T05:40:47;8.02;;;4.40;;
6527;SDS011;64597;42.664;23.256;2024-02-14T05:43:13;8.50;;;4.53;;
6527;SDS011;64597;42.664;23.256;2024-02-14T05:45:38;7.65;;;4.30;;
6527;SDS011;64597;42.664;23.256;2024-02-14T05:48:04;6.82;;;3.75;;
6527;SDS011;64597;42.664;23.256;2024-02-14T05:50:31;6.78;;;4.50;;
6527;SDS011;64597;42.664;23.256;2024-02-14T05:52:56;8.18;;;4.35;;
6527;SDS011;64597;42.664;23.256;2024-02-14T05:55:23;6.20;;;3.58;;
6527;SDS011;64597;42.664;23.256;2024-02-14T05:57:48;7.05;;;4.18;;
6527;SDS011;64597;42.664;23.256;2024-02-14T06:00:15;7.05;;;4.18;;
6527;SDS011;64597;42.664;23.256;2024-02-14T06:02:40;9.13;;;4.53;;
6527;SDS011;64597;42.664;23.256;2024-02-14T06:05:06;8.52;;;5.00;;
6527;SDS011;64597;42.664;23.256;2024-02-14T06:07:36;7.57;;;4.40;;
6527;SDS011;64597;42.664;23.256;2024-02-14T06:10:02;7.50;;;4.38;;
6527;SDS011;64597;42.664;23.256;2024-02-14T06:12:27;7.60;;;4.40;;
6527;SDS011;64597;42.664;23.256;2024-02-14T06:14:54;7.85;;;4.78;;
6527;SDS011;64597;42.664;23.256;2024-02-14T06:17:20;5.68;;;3.78;;
6527;SDS011;64597;42.664;23.256;2024-02-14T06:19:45;7.53;;;4.93;;
6527;SDS011;64597;42.664;23.256;2024-02-14T06:22:11;9.02;;;4.80;;
6527;SDS011;64597;42.664;23.256;2024-02-14T06:24:36;8.02;;;4.63;;
6527;SDS011;64597;42.664;23.256;2024-02-14T06:27:02;7.30;;;4.38;;
6527;SDS011;64597;42.664;23.256;2024-02-14T06:29:27;6.55;;;4.07;;
6527;SDS011;64597;42.664;23.256;2024-02-14T06:31:53;6.22;;;3.97;;
6527;SDS011;64597;42.664;23.256;2024-02-14T06:34:19;6.00;;;4.32;;
6527;SDS011;64597;42.664;23.256;2024-02-14T06:36:46;8.52;;;4.85;;
6527;SDS011;64597;42.664;23.256;2024-02-14T06:39:12;5.80;;;4.65;;
6527;SDS011;64597;42.664;23.256;2024-02-14T06:41:37;9.38;;;4.80;;
6527;SDS011;64597;42.664;23.256;2024-02-14T06:44:03;6.18;;;4.47;;
6527;SDS011;64597;42.664;23.256;2024-02-14T06:46:29;6.93;;;4.45;;
6527;SDS011;64597;42.664;23.256;2024-02-14T06:48:55;7.93;;;4.25;;
6527;SDS011;64597;42.664;23.256;2024-02-14T06:51:21;6.57;;;4.15;;
6527;SDS011;64597;42.664;23.256;2024-02-14T06:53:49;8.02;;;4.55;;
6527;SDS011;64597;42.664;23.256;2024-02-14T06:56:14;8.55;;;5.30;;
6527;SDS011;64597;42.664;23.256;2024-02-14T06:58:43;6.85;;;4.18;;
6527;SDS011;64597;42.664;23.256;2024-02-14T07:03:37;7.78;;;3.25;;
6527;SDS011;64597;42.664;23.256;2024-02-14T07:06:02;6.93;;;3.95;;
6527;SDS011;64597;42.664;23.256;2024-02-14T07:08:28;6.80;;;3.90;;
6527;SDS011;64597;42.664;23.256;2024-02-14T07:10:56;9.18;;;4.13;;
6527;SDS011;64597;42.664;23.256;2024-02-14T07:13:22;5.43;;;4.13;;
6527;SDS011;64597;42.664;23.256;2024-02-14T07:15:48;5.80;;;3.88;;
6527;SDS011;64597;42.664;23.256;2024-02-14T07:18:13;7.72;;;4.50;;
6527;SDS011;64597;42.664;23.256;2024-02-14T07:20:38;7.53;;;3.60;;
6527;SDS011;64597;42.664;23.256;2024-02-14T07:23:04;4.82;;;2.50;;
6527;SDS011;64597;42.664;23.256;2024-02-14T07:25:30;7.20;;;4.30;;
6527;SDS011;64597;42.664;23.256;2024-02-14T07:27:55;6.05;;;3.63;;
6527;SDS011;64597;42.664;23.256;2024-02-14T07:30:21;6.53;;;3.10;;
6527;SDS011;64597;42.664;23.256;2024-02-14T07:32:46;4.53;;;2.65;;
6527;SDS011;64597;42.664;23.256;2024-02-14T07:35:12;4.25;;;3.15;;
6527;SDS011;64597;42.664;23.256;2024-02-14T07:37:38;6.40;;;3.08;;
6527;SDS011;64597;42.664;23.256;2024-02-14T07:40:04;4.97;;;3.80;;
6527;SDS011;64597;42.664;23.256;2024-02-14T07:42:30;5.80;;;4.32;;
6527;SDS011;64597;42.664;23.256;2024-02-14T07:44:56;6.15;;;4.15;;
6527;SDS011;64597;42.664;23.256;2024-02-14T07:47:22;7.65;;;4.28;;
6527;SDS011;64597;42.664;23.256;2024-02-14T07:49:47;6.55;;;4.35;;
6527;SDS011;64597;42.664;23.256;2024-02-14T07:52:13;7.07;;;4.25;;
6527;SDS011;64597;42.664;23.256;2024-02-14T07:54:38;5.07;;;3.95;;
6527;SDS011;64597;42.664;23.256;2024-02-14T07:57:04;4.80;;;3.35;;
6527;SDS011;64597;42.664;23.256;2024-02-14T07:59:29;5.07;;;3.70;;
6527;SDS011;64597;42.664;23.256;2024-02-14T08:01:55;5.20;;;4.00;;
6527;SDS011;64597;42.664;23.256;2024-02-14T08:04:22;6.43;;;4.30;;
6527;SDS011;64597;42.664;23.256;2024-02-14T08:06:48;4.85;;;3.38;;
6527;SDS011;64597;42.664;23.256;2024-02-14T08:09:16;6.28;;;3.72;;
6527;SDS011;64597;42.664;23.256;2024-02-14T08:11:42;6.03;;;4.10;;
6527;SDS011;64597;42.664;23.256;2024-02-14T08:14:07;7.00;;;4.22;;
6527;SDS011;64597;42.664;23.256;2024-02-14T08:16:33;5.30;;;3.30;;
6527;SDS011;64597;42.664;23.256;2024-02-14T08:18:59;5.50;;;3.35;;
6527;SDS011;64597;42.664;23.256;2024-02-14T08:21:25;5.05;;;3.40;;
6527;SDS011;64597;42.664;23.256;2024-02-14T08:23:51;5.40;;;3.50;;
6527;SDS011;64597;42.664;23.256;2024-02-14T08:26:17;6.43;;;3.47;;
6527;SDS011;64597;42.664;23.256;2024-02-14T08:28:44;4.70;;;3.22;;
6527;SDS011;64597;42.664;23.256;2024-02-14T08:31:12;5.93;;;3.65;;
6527;SDS011;64597;42.664;23.256;2024-02-14T08:33:37;6.82;;;3.72;;
6527;SDS011;64597;42.664;23.256;2024-02-14T08:36:03;4.15;;;2.83;;
6527;SDS011;64597;42.664;23.256;2024-02-14T08:38:32;7.15;;;3.78;;
6527;SDS011;64597;42.664;23.256;2024-02-14T08:41:00;4.70;;;3.13;;
6527;SDS011;64597;42.664;23.256;2024-02-14T08:43:29;4.95;;;3.17;;
6527;SDS011;64597;42.664;23.256;2024-02-14T08:45:55;5.40;;;3.20;;
6527;SDS011;64597;42.664;23.256;2024-02-14T08:48:21;6.55;;;3.05;;
6527;SDS011;64597;42.664;23.256;2024-02-14T08:50:51;6.03;;;3.90;;
6527;SDS011;64597;42.664;23.256;2024-02-14T08:53:17;5.80;;;3.35;;
6527;SDS011;64597;42.664;23.256;2024-02-14T08:55:42;6.78;;;3.28;;
6527;SDS011;64597;42.664;23.256;2024-02-14T08:58:08;7.32;;;3.40;;
6527;SDS011;64597;42.664;23.256;2024-02-14T09:00:37;6.15;;;3.55;;
6527;SDS011;64597;42.664;23.256;2024-02-14T09:03:03;5.65;;;2.88;;
6527;SDS011;64597;42.664;23.256;2024-02-14T09:05:29;7.72;;;3.80;;
6527;SDS011;64597;42.664;23.256;2024-02-14T09:07:55;7.68;;;3.78;;
6527;SDS011;64597;42.664;23.256;2024-02-14T09:10:20;5.15;;;3.10;;
6527;SDS011;64597;42.664;23.256;2024-02-14T09:12:46;7.43;;;4.43;;
6527;SDS011;64597;42.664;23.256;2024-02-14T09:15:12;5.53;;;3.58;;
6527;SDS011;64597;42.664;23.256;2024-02-14T09:17:38;6.00;;;4.05;;
6527;SDS011;64597;42.664;23.256;2024-02-14T09:20:05;6.75;;;3.55;;
6527;SDS011;64597;42.664;23.256;2024-02-14T09:22:34;6.15;;;3.55;;
6527;SDS011;64597;42.664;23.256;2024-02-14T09:25:00;4.97;;;3.28;;
6527;SDS011;64597;42.664;23.256;2024-02-14T09:27:32;6.22;;;3.97;;
6527;SDS011;64597;42.664;23.256;2024-02-14T09:29:58;7.43;;;3.63;;
6527;SDS011;64597;42.664;23.256;2024-02-14T09:32:24;6.80;;;4.15;;
6527;SDS011;64597;42.664;23.256;2024-02-14T09:34:50;7.00;;;4.20;;
6527;SDS011;64597;42.664;23.256;2024-02-14T09:37:15;7.13;;;4.20;;
6527;SDS011;64597;42.664;23.256;2024-02-14T09:39:41;7.53;;;3.90;;
6527;SDS011;64597;42.664;23.256;2024-02-14T09:42:09;6.35;;;3.85;;
6527;SDS011;64597;42.664;23.256;2024-02-14T09:44:38;6.43;;;4.10;;
6527;SDS011;64597;42.664;23.256;2024-02-14T09:47:05;6.40;;;4.10;;
6527;SDS011;64597;42.664;23.256;2024-02-14T09:49:31;7.45;;;4.05;;
6527;SDS011;64597;42.664;23.256;2024-02-14T09:51:58;7.15;;;3.97;;
6527;SDS011;64597;42.664;23.256;2024-02-14T09:54:28;6.57;;;4.00;;
6527;SDS011;64597;42.664;23.256;2024-02-14T09:56:56;6.55;;;3.72;;
6527;SDS011;64597;42.664;23.256;2024-02-14T09:59:24;6.57;;;4.57;;
6527;SDS011;64597;42.664;23.256;2024-02-14T10:01:50;5.47;;;3.33;;
6527;SDS011;64597;42.664;23.256;2024-02-14T10:04:16;5.30;;;2.70;;
6527;SDS011;64597;42.664;23.256;2024-02-14T10:06:44;5.60;;;3.15;;
6527;SDS011;64597;42.664;23.256;2024-02-14T10:09:17;5.43;;;3.47;;
6527;SDS011;64597;42.664;23.256;2024-02-14T10:11:44;5.97;;;3.53;;
6527;SDS011;64597;42.664;23.256;2024-02-14T10:14:11;6.75;;;3.90;;
6527;SDS011;64597;42.664;23.256;2024-02-14T10:16:37;4.50;;;3.45;;
6527;SDS011;64597;42.664;23.256;2024-02-14T10:19:03;5.70;;;3.95;;
6527;SDS011;64597;42.664;23.256;2024-02-14T10:21:29;4.95;;;3.95;;
6527;SDS011;64597;42.664;23.256;2024-02-14T10:23:59;9.07;;;3.65;;
6527;SDS011;64597;42.664;23.256;2024-02-14T10:26:28;4.97;;;2.85;;
6527;SDS011;64597;42.664;23.256;2024-02-14T10:28:56;4.53;;;3.30;;
6527;SDS011;64597;42.664;23.256;2024-02-14T10:31:23;4.10;;;2.55;;
6527;SDS011;64597;42.664;23.256;2024-02-14T10:36:16;4.68;;;2.90;;
6527;SDS011;64597;42.664;23.256;2024-02-14T10:38:42;4.95;;;2.97;;
6527;SDS011;64597;42.664;23.256;2024-02-14T10:41:11;4.53;;;3.47;;
6527;SDS011;64597;42.664;23.256;2024-02-14T10:43:39;5.55;;;3.17;;
6527;SDS011;64597;42.664;23.256;2024-02-14T10:46:07;5.28;;;3.55;;
6527;SDS011;64597;42.664;23.256;2024-02-14T10:48:38;4.80;;;3.35;;
6527;SDS011;64597;42.664;23.256;2024-02-14T10:51:05;4.78;;;3.15;;
6527;SDS011;64597;42.664;23.256;2024-02-14T10:53:38;5.28;;;3.20;;
6527;SDS011;64597;42.664;23.256;2024-02-14T10:58:46;4.97;;;3.58;;
6527;SDS011;64597;42.664;23.256;2024-02-14T11:01:16;4.53;;;2.90;;
6527;SDS011;64597;42.664;23.256;2024-02-14T11:04:03;6.50;;;3.25;;
6527;SDS011;64597;42.664;23.256;2024-02-14T11:06:29;7.68;;;3.58;;
6527;SDS011;64597;42.664;23.256;2024-02-14T11:08:56;5.55;;;3.25;;
6527;SDS011;64597;42.664;23.256;2024-02-14T11:11:21;5.85;;;3.40;;
6527;SDS011;64597;42.664;23.256;2024-02-14T11:13:51;7.75;;;3.28;;
6527;SDS011;64597;42.664;23.256;2024-02-14T11:16:17;6.88;;;4.10;;
6527;SDS011;64597;42.664;23.256;2024-02-14T11:18:43;6.22;;;3.03;;
6527;SDS011;64597;42.664;23.256;2024-02-14T11:21:28;7.15;;;3.55;;
6527;SDS011;64597;42.664;23.256;2024-02-14T11:23:55;6.22;;;3.38;;
6527;SDS011;64597;42.664;23.256;2024-02-14T11:26:20;7.35;;;3.45;;
6527;SDS011;64597;42.664;23.256;2024-02-14T11:28:48;5.55;;;3.28;;
6527;SDS011;64597;42.664;23.256;2024-02-14T11:31:16;4.30;;;3.38;;
6527;SDS011;64597;42.664;23.256;2024-02-14T11:33:42;4.43;;;3.30;;
6527;SDS011;64597;42.664;23.256;2024-02-14T11:36:10;4.35;;;3.10;;
6527;SDS011;64597;42.664;23.256;2024-02-14T11:38:36;6.82;;;3.53;;
6527;SDS011;64597;42.664;23.256;2024-02-14T11:41:02;7.85;;;3.70;;
6527;SDS011;64597;42.664;23.256;2024-02-14T11:43:28;6.85;;;4.65;;
6527;SDS011;64597;42.664;23.256;2024-02-14T11:45:54;5.65;;;3.10;;
6527;SDS011;64597;42.664;23.256;2024-02-14T11:48:20;5.05;;;3.15;;
6527;SDS011;64597;42.664;23.256;2024-02-14T11:50:46;8.40;;;3.65;;
6527;SDS011;64597;42.664;23.256;2024-02-14T11:53:12;6.05;;;3.78;;
6527;SDS011;64597;42.664;23.256;2024-02-14T11:55:41;6.80;;;4.28;;
6527;SDS011;64597;42.664;23.256;2024-02-14T11:58:07;7.68;;;3.80;;
6527;SDS011;64597;42.664;23.256;2024-02-14T12:00:41;4.57;;;3.10;;
6527;SDS011;64597;42.664;23.256;2024-02-14T12:03:11;6.05;;;3.50;;
6527;SDS011;64597;42.664;23.256;2024-02-14T12:05:38;6.32;;;4.18;;
6527;SDS011;64597;42.664;23.256;2024-02-14T12:08:04;5.32;;;2.72;;
6527;SDS011;64597;42.664;23.256;2024-02-14T12:10:31;6.53;;;4.20;;
6527;SDS011;64597;42.664;23.256;2024-02-14T12:12:58;9.15;;;3.50;;
6527;SDS011;64597;42.664;23.256;2024-02-14T12:15:29;4.55;;;3.33;;
6527;SDS011;64597;42.664;23.256;2024-02-14T12:17:54;4.00;;;3.38;;
6527;SDS011;64597;42.664;23.256;2024-02-14T12:20:21;4.63;;;3.30;;
6527;SDS011;64597;42.664;23.256;2024-02-14T12:22:51;6.50;;;3.60;;
6527;SDS011;64597;42.664;23.256;2024-02-14T12:25:16;6.32;;;3.85;;
6527;SDS011;64597;42.664;23.256;2024-02-14T12:27:42;5.15;;;3.45;;
6527;SDS011;64597;42.664;23.256;2024-02-14T12:30:07;6.38;;;3.53;;
6527;SDS011;64597;42.664;23.256;2024-02-14T12:32:34;5.28;;;3.72;;
6527;SDS011;64597;42.664;23.256;2024-02-14T12:35:00;8.18;;;4.03;;
6527;SDS011;64597;42.664;23.256;2024-02-14T12:37:25;6.60;;;3.97;;
6527;SDS011;64597;42.664;23.256;2024-02-14T12:39:51;6.88;;;3.38;;
6527;SDS011;64597;42.664;23.256;2024-02-14T12:42:18;6.88;;;3.03;;
6527;SDS011;64597;42.664;23.256;2024-02-14T12:44:49;7.10;;;3.47;;
6527;SDS011;64597;42.664;23.256;2024-02-14T12:47:15;6.20;;;3.85;;
6527;SDS011;64597;42.664;23.256;2024-02-14T12:49:41;8.90;;;3.90;;
6527;SDS011;64597;42.664;23.256;2024-02-14T12:52:06;6.35;;;3.60;;
6527;SDS011;64597;42.664;23.256;2024-02-14T12:54:31;7.63;;;4.55;;
6527;SDS011;64597;42.664;23.256;2024-02-14T12:56:57;5.30;;;3.22;;
6527;SDS011;64597;42.664;23.256;2024-02-14T12:59:23;5.95;;;3.17;;
6527;SDS011;64597;42.664;23.256;2024-02-14T13:02:11;5.97;;;4.20;;
6527;SDS011;64597;42.664;23.256;2024-02-14T13:05:08;7.93;;;4.10;;
6527;SDS011;64597;42.664;23.256;2024-02-14T13:07:34;9.55;;;4.35;;
6527;SDS011;64597;42.664;23.256;2024-02-14T13:10:19;6.05;;;3.53;;
6527;SDS011;64597;42.664;23.256;2024-02-14T13:13:02;5.40;;;3.10;;
6527;SDS011;64597;42.664;23.256;2024-02-14T13:15:30;4.68;;;3.72;;
6527;SDS011;64597;42.664;23.256;2024-02-14T13:17:56;3.78;;;2.13;;
6527;SDS011;64597;42.664;23.256;2024-02-14T13:20:27;6.75;;;3.03;;
6527;SDS011;64597;42.664;23.256;2024-02-14T13:23:05;5.57;;;3.60;;
6527;SDS011;64597;42.664;23.256;2024-02-14T13:25:44;6.78;;;3.33;;
6527;SDS011;64597;42.664;23.256;2024-02-14T13:28:17;5.20;;;3.20;;
6527;SDS011;64597;42.664;23.256;2024-02-14T13:30:49;4.85;;;3.15;;
6527;SDS011;64597;42.664;23.256;2024-02-14T13:33:22;6.72;;;3.13;;
6527;SDS011;64597;42.664;23.256;2024-02-14T13:35:51;5.35;;;3.83;;
6527;SDS011;64597;42.664;23.256;2024-02-14T13:39:06;4.50;;;3.17;;
6527;SDS011;64597;42.664;23.256;2024-02-14T13:58:29;6.05;;;3.70;;
6527;SDS011;64597;42.664;23.256;2024-02-14T14:00:54;6.13;;;3.85;;
6527;SDS011;64597;42.664;23.256;2024-02-14T14:03:20;7.90;;;3.72;;
6527;SDS011;64597;42.664;23.256;2024-02-14T14:05:45;4.60;;;4.03;;
6527;SDS011;64597;42.664;23.256;2024-02-14T14:08:11;7.20;;;3.88;;
6527;SDS011;64597;42.664;23.256;2024-02-14T14:10:36;8.75;;;4.35;;
6527;SDS011;64597;42.664;23.256;2024-02-14T14:13:02;8.38;;;3.88;;
6527;SDS011;64597;42.664;23.256;2024-02-14T14:15:28;6.18;;;4.60;;
6527;SDS011;64597;42.664;23.256;2024-02-14T14:20:22;5.13;;;3.28;;
6527;SDS011;64597;42.664;23.256;2024-02-14T14:22:47;6.30;;;3.55;;
6527;SDS011;64597;42.664;23.256;2024-02-14T14:25:13;5.68;;;3.88;;
6527;SDS011;64597;42.664;23.256;2024-02-14T14:27:38;4.95;;;3.53;;
6527;SDS011;64597;42.664;23.256;2024-02-14T14:30:04;5.25;;;3.47;;
6527;SDS011;64597;42.664;23.256;2024-02-14T14:32:30;6.13;;;3.58;;
6527;SDS011;64597;42.664;23.256;2024-02-14T14:34:56;6.53;;;3.85;;
6527;SDS011;64597;42.664;23.256;2024-02-14T14:37:21;7.35;;;3.70;;
6527;SDS011;64597;42.664;23.256;2024-02-14T14:39:47;5.57;;;3.15;;
6527;SDS011;64597;42.664;23.256;2024-02-14T14:42:13;7.00;;;4.93;;
6527;SDS011;64597;42.664;23.256;2024-02-14T14:44:38;4.55;;;3.28;;
6527;SDS011;64597;42.664;23.256;2024-02-14T14:47:04;5.53;;;3.63;;
6527;SDS011;64597;42.664;23.256;2024-02-14T14:49:30;6.68;;;3.20;;
6527;SDS011;64597;42.664;23.256;2024-02-14T14:51:55;5.53;;;2.78;;
6527;SDS011;64597;42.664;23.256;2024-02-14T14:54:22;5.30;;;2.88;;
6527;SDS011;64597;42.664;23.256;2024-02-14T14:56:52;6.10;;;3.17;;
6527;SDS011;64597;42.664;23.256;2024-02-14T14:59:19;4.50;;;3.67;;
6527;SDS011;64597;42.664;23.256;2024-02-14T15:01:44;6.35;;;3.80;;
6527;SDS011;64597;42.664;23.256;2024-02-14T15:04:10;5.45;;;3.28;;
6527;SDS011;64597;42.664;23.256;2024-02-14T15:06:35;5.47;;;4.10;;
6527;SDS011;64597;42.664;23.256;2024-02-14T15:09:01;5.18;;;3.15;;
6527;SDS011;64597;42.664;23.256;2024-02-14T15:11:26;5.43;;;3.47;;
6527;SDS011;64597;42.664;23.256;2024-02-14T15:13:53;5.53;;;3.15;;